Terminal Aerodrome Forecast
Issued by NWS Jackson, KY

Home | Current Version | Previous Version | Text Only | Print | Product List | Glossary On
Versions: 1 2 3 4 5 6 7 8 9 10 11 12 13 14 15 16
000
FTUS43 KJKL 182322
TAFJKL
TAF
KJKL 182322Z 1900/1924 00000KT P6SM BKN015
     FM190500 00000KT P6SM BKN025
     FM191200 00000KT P6SM BKN090
     FM191900 VRB03KT P6SM VCSH BKN090=

USA.gov is the U.S. government's official web portal to all federal, state and local government web resources and services.